sensor_id;sensor_type;location;lat;lon;timestamp;pressure;altitude;pressure_sealevel;temperature;humidity
24558;BME280;12726;49.148;8.582;2023-01-19T00:00:17;99418.16;;;-1.21;96.84
24558;BME280;12726;49.148;8.582;2023-01-19T00:03:03;99419.16;;;-1.13;96.70
24558;BME280;12726;49.148;8.582;2023-01-19T00:05:48;99413.72;;;-1.12;96.20
24558;BME280;12726;49.148;8.582;2023-01-19T00:08:34;99422.47;;;-1.11;96.21
24558;BME280;12726;49.148;8.582;2023-01-19T00:11:21;99428.06;;;-1.23;96.10
24558;BME280;12726;49.148;8.582;2023-01-19T00:14:06;99423.75;;;-1.24;96.35
24558;BME280;12726;49.148;8.582;2023-01-19T00:16:51;99424.06;;;-1.27;96.51
24558;BME280;12726;49.148;8.582;2023-01-19T00:19:37;99417.78;;;-1.34;96.66
24558;BME280;12726;49.148;8.582;2023-01-19T00:22:22;99424.88;;;-1.42;96.69
24558;BME280;12726;49.148;8.582;2023-01-19T00:25:08;99430.94;;;-1.50;97.35
24558;BME280;12726;49.148;8.582;2023-01-19T00:27:55;99427.09;;;-1.55;97.71
24558;BME280;12726;49.148;8.582;2023-01-19T00:30:41;99426.72;;;-1.69;97.64
24558;BME280;12726;49.148;8.582;2023-01-19T00:33:26;99424.06;;;-1.77;98.20
24558;BME280;12726;49.148;8.582;2023-01-19T00:36:12;99438.91;;;-1.76;98.74
24558;BME280;12726;49.148;8.582;2023-01-19T00:38:57;99439.44;;;-1.72;98.74
24558;BME280;12726;49.148;8.582;2023-01-19T00:41:42;99436.41;;;-1.77;98.90
24558;BME280;12726;49.148;8.582;2023-01-19T00:44:46;99443.53;;;-1.78;98.76
24558;BME280;12726;49.148;8.582;2023-01-19T00:47:31;99446.72;;;-1.66;99.70
24558;BME280;12726;49.148;8.582;2023-01-19T00:50:17;99456.13;;;-1.64;99.26
24558;BME280;12726;49.148;8.582;2023-01-19T00:53:02;99457.75;;;-1.63;99.04
24558;BME280;12726;49.148;8.582;2023-01-19T00:55:48;99455.94;;;-1.62;99.06
24558;BME280;12726;49.148;8.582;2023-01-19T00:58:33;99460.84;;;-1.75;98.94
24558;BME280;12726;49.148;8.582;2023-01-19T01:01:20;99445.44;;;-1.88;99.22
24558;BME280;12726;49.148;8.582;2023-01-19T01:04:05;99457.13;;;-1.90;99.71
24558;BME280;12726;49.148;8.582;2023-01-19T01:06:51;99464.38;;;-1.92;99.89
24558;BME280;12726;49.148;8.582;2023-01-19T01:09:36;99464.69;;;-1.95;99.93
24558;BME280;12726;49.148;8.582;2023-01-19T01:12:22;99467.16;;;-1.94;100.00
24558;BME280;12726;49.148;8.582;2023-01-19T01:15:09;99473.63;;;-1.88;100.00
24558;BME280;12726;49.148;8.582;2023-01-19T01:17:57;99474.09;;;-1.93;100.00
24558;BME280;12726;49.148;8.582;2023-01-19T01:20:42;99480.84;;;-1.90;100.00
24558;BME280;12726;49.148;8.582;2023-01-19T01:23:28;99477.66;;;-1.76;100.00
24558;BME280;12726;49.148;8.582;2023-01-19T01:26:13;99479.06;;;-1.64;100.00
24558;BME280;12726;49.148;8.582;2023-01-19T01:28:58;99475.78;;;-1.58;99.75
24558;BME280;12726;49.148;8.582;2023-01-19T01:31:44;99479.41;;;-1.59;99.63
24558;BME280;12726;49.148;8.582;2023-01-19T01:34:30;99483.06;;;-1.52;99.31
24558;BME280;12726;49.148;8.582;2023-01-19T01:37:16;99477.75;;;-1.60;98.88
24558;BME280;12726;49.148;8.582;2023-01-19T01:40:01;99481.50;;;-1.63;99.36
24558;BME280;12726;49.148;8.582;2023-01-19T01:42:46;99486.78;;;-1.63;99.50
24558;BME280;12726;49.148;8.582;2023-01-19T01:45:34;99481.00;;;-1.66;99.19
24558;BME280;12726;49.148;8.582;2023-01-19T01:48:24;99476.66;;;-1.75;99.15
24558;BME280;12726;49.148;8.582;2023-01-19T01:51:15;99471.53;;;-1.85;98.96
24558;BME280;12726;49.148;8.582;2023-01-19T01:54:13;99477.94;;;-1.87;99.60
24558;BME280;12726;49.148;8.582;2023-01-19T01:57:02;99473.69;;;-1.80;99.89
24558;BME280;12726;49.148;8.582;2023-01-19T01:59:51;99481.31;;;-1.69;99.77
24558;BME280;12726;49.148;8.582;2023-01-19T02:02:36;99485.69;;;-1.52;99.37
24558;BME280;12726;49.148;8.582;2023-01-19T02:05:36;99480.00;;;-1.31;98.35
24558;BME280;12726;49.148;8.582;2023-01-19T02:08:26;99476.53;;;-1.32;98.12
24558;BME280;12726;49.148;8.582;2023-01-19T02:11:31;99471.59;;;-1.27;97.98
24558;BME280;12726;49.148;8.582;2023-01-19T02:14:35;99477.44;;;-1.15;97.33
24558;BME280;12726;49.148;8.582;2023-01-19T02:17:21;99479.38;;;-1.25;97.56
24558;BME280;12726;49.148;8.582;2023-01-19T02:20:07;99478.88;;;-1.29;97.65
24558;BME280;12726;49.148;8.582;2023-01-19T02:22:54;99477.53;;;-1.33;98.05
24558;BME280;12726;49.148;8.582;2023-01-19T02:25:42;99470.16;;;-1.21;98.13
24558;BME280;12726;49.148;8.582;2023-01-19T02:28:27;99475.59;;;-1.23;97.70
24558;BME280;12726;49.148;8.582;2023-01-19T02:31:13;99472.31;;;-1.16;96.95
24558;BME280;12726;49.148;8.582;2023-01-19T02:33:59;99471.97;;;-1.13;97.14
24558;BME280;12726;49.148;8.582;2023-01-19T02:36:48;99466.69;;;-1.13;96.76
24558;BME280;12726;49.148;8.582;2023-01-19T02:39:36;99475.09;;;-1.18;96.70
24558;BME280;12726;49.148;8.582;2023-01-19T02:42:27;99465.22;;;-1.16;96.99
24558;BME280;12726;49.148;8.582;2023-01-19T02:45:16;99464.66;;;-1.28;96.87
24558;BME280;12726;49.148;8.582;2023-01-19T02:48:02;99477.94;;;-1.11;96.82
24558;BME280;12726;49.148;8.582;2023-01-19T02:50:50;99475.63;;;-1.06;96.71
24558;BME280;12726;49.148;8.582;2023-01-19T02:53:52;99478.66;;;-0.93;96.27
24558;BME280;12726;49.148;8.582;2023-01-19T02:56:48;99472.69;;;-0.95;96.17
24558;BME280;12726;49.148;8.582;2023-01-19T02:59:53;99479.31;;;-0.91;95.81
24558;BME280;12726;49.148;8.582;2023-01-19T03:02:48;99468.09;;;-0.93;96.03
24558;BME280;12726;49.148;8.582;2023-01-19T03:05:51;99468.28;;;-0.78;95.71
24558;BME280;12726;49.148;8.582;2023-01-19T03:08:45;99466.63;;;-0.71;95.17
24558;BME280;12726;49.148;8.582;2023-01-19T03:11:37;99467.13;;;-0.76;95.37
24558;BME280;12726;49.148;8.582;2023-01-19T03:14:27;99473.41;;;-0.69;95.55
24558;BME280;12726;49.148;8.582;2023-01-19T03:17:17;99475.72;;;-0.66;95.19
24558;BME280;12726;49.148;8.582;2023-01-19T03:20:04;99476.72;;;-0.59;94.49
24558;BME280;12726;49.148;8.582;2023-01-19T03:22:53;99479.38;;;-0.59;94.90
24558;BME280;12726;49.148;8.582;2023-01-19T03:25:42;99480.84;;;-0.48;94.41
24558;BME280;12726;49.148;8.582;2023-01-19T03:28:28;99480.03;;;-0.32;93.68
24558;BME280;12726;49.148;8.582;2023-01-19T03:31:16;99483.81;;;-0.27;93.38
24558;BME280;12726;49.148;8.582;2023-01-19T03:34:09;99475.72;;;-0.17;92.61
24558;BME280;12726;49.148;8.582;2023-01-19T03:36:58;99485.31;;;-0.16;92.78
24558;BME280;12726;49.148;8.582;2023-01-19T03:39:45;99483.84;;;-0.19;92.53
24558;BME280;12726;49.148;8.582;2023-01-19T03:42:31;99484.50;;;-0.17;92.60
24558;BME280;12726;49.148;8.582;2023-01-19T03:45:17;99481.84;;;-0.17;92.51
24558;BME280;12726;49.148;8.582;2023-01-19T03:48:03;99487.63;;;-0.05;91.70
24558;BME280;12726;49.148;8.582;2023-01-19T03:50:51;99486.78;;;-0.14;92.06
24558;BME280;12726;49.148;8.582;2023-01-19T03:53:37;99496.91;;;-0.09;91.86
24558;BME280;12726;49.148;8.582;2023-01-19T03:56:23;99495.56;;;-0.13;92.12
24558;BME280;12726;49.148;8.582;2023-01-19T03:59:11;99498.03;;;-0.04;91.67
24558;BME280;12726;49.148;8.582;2023-01-19T04:02:03;99502.66;;;-0.06;91.92
24558;BME280;12726;49.148;8.582;2023-01-19T04:04:48;99509.78;;;-0.06;91.76
24558;BME280;12726;49.148;8.582;2023-01-19T04:07:35;99512.59;;;-0.08;92.48
24558;BME280;12726;49.148;8.582;2023-01-19T04:10:21;99509.13;;;0.00;91.88
24558;BME280;12726;49.148;8.582;2023-01-19T04:13:06;99508.63;;;-0.04;92.07
24558;BME280;12726;49.148;8.582;2023-01-19T04:15:51;99510.13;;;-0.01;92.24
24558;BME280;12726;49.148;8.582;2023-01-19T04:18:36;99501.69;;;-0.05;92.06
24558;BME280;12726;49.148;8.582;2023-01-19T04:21:22;99505.81;;;-0.02;91.52
24558;BME280;12726;49.148;8.582;2023-01-19T04:24:09;99509.47;;;-0.03;91.82
24558;BME280;12726;49.148;8.582;2023-01-19T04:26:55;99496.72;;;-0.08;91.71
24558;BME280;12726;49.148;8.582;2023-01-19T04:29:40;99504.84;;;-0.09;92.25
24558;BME280;12726;49.148;8.582;2023-01-19T04:32:25;99502.66;;;-0.06;91.78
24558;BME280;12726;49.148;8.582;2023-01-19T04:35:11;99503.34;;;-0.04;92.01
24558;BME280;12726;49.148;8.582;2023-01-19T04:37:56;99511.13;;;-0.02;91.98
24558;BME280;12726;49.148;8.582;2023-01-19T04:40:43;99506.66;;;-0.02;92.22
24558;BME280;12726;49.148;8.582;2023-01-19T04:43:28;99513.41;;;0.01;92.45
24558;BME280;12726;49.148;8.582;2023-01-19T04:46:14;99517.38;;;0.05;92.18
24558;BME280;12726;49.148;8.582;2023-01-19T04:48:59;99514.44;;;0.00;92.32
24558;BME280;12726;49.148;8.582;2023-01-19T04:51:45;99517.22;;;-0.02;92.30
24558;BME280;12726;49.148;8.582;2023-01-19T04:54:30;99516.88;;;0.02;92.17
24558;BME280;12726;49.148;8.582;2023-01-19T04:57:17;99520.88;;;0.06;91.91
24558;BME280;12726;49.148;8.582;2023-01-19T05:00:03;99521.03;;;0.04;91.65
24558;BME280;12726;49.148;8.582;2023-01-19T05:02:50;99523.50;;;0.06;91.84
24558;BME280;12726;49.148;8.582;2023-01-19T05:05:35;99526.16;;;0.06;92.04
24558;BME280;12726;49.148;8.582;2023-01-19T05:08:21;99525.16;;;0.07;92.08
24558;BME280;12726;49.148;8.582;2023-01-19T05:11:07;99521.69;;;0.06;91.97
24558;BME280;12726;49.148;8.582;2023-01-19T05:13:54;99534.56;;;0.09;92.21
24558;BME280;12726;49.148;8.582;2023-01-19T05:16:39;99535.91;;;0.05;92.29
24558;BME280;12726;49.148;8.582;2023-01-19T05:19:25;99529.28;;;0.09;92.43
24558;BME280;12726;49.148;8.582;2023-01-19T05:22:10;99533.94;;;0.07;92.67
24558;BME280;12726;49.148;8.582;2023-01-19T05:24:56;99542.34;;;-0.06;93.15
24558;BME280;12726;49.148;8.582;2023-01-19T05:27:41;99542.34;;;0.03;93.55
24558;BME280;12726;49.148;8.582;2023-01-19T05:30:28;99543.19;;;0.03;92.78
24558;BME280;12726;49.148;8.582;2023-01-19T05:33:14;99547.81;;;0.09;93.06
24558;BME280;12726;49.148;8.582;2023-01-19T05:35:59;99550.44;;;0.01;93.37
24558;BME280;12726;49.148;8.582;2023-01-19T05:38:44;99545.00;;;0.11;93.32
24558;BME280;12726;49.148;8.582;2023-01-19T05:41:29;99545.81;;;0.11;92.92
24558;BME280;12726;49.148;8.582;2023-01-19T05:44:15;99541.19;;;0.13;93.26
24558;BME280;12726;49.148;8.582;2023-01-19T05:47:01;99535.72;;;0.15;92.60
24558;BME280;12726;49.148;8.582;2023-01-19T05:49:47;99534.09;;;0.06;92.78
24558;BME280;12726;49.148;8.582;2023-01-19T05:52:32;99532.28;;;-0.02;92.85
24558;BME280;12726;49.148;8.582;2023-01-19T05:55:17;99535.09;;;-0.04;93.05
24558;BME280;12726;49.148;8.582;2023-01-19T05:58:02;99524.34;;;-0.10;93.10
24558;BME280;12726;49.148;8.582;2023-01-19T06:00:48;99534.25;;;-0.20;93.36
24558;BME280;12726;49.148;8.582;2023-01-19T06:03:35;99523.84;;;-0.30;93.25
24558;BME280;12726;49.148;8.582;2023-01-19T06:06:22;99538.53;;;-0.35;93.63
24558;BME280;12726;49.148;8.582;2023-01-19T06:09:07;99539.84;;;-0.40;93.38
24558;BME280;12726;49.148;8.582;2023-01-19T06:11:53;99549.44;;;-0.38;93.54
24558;BME280;12726;49.148;8.582;2023-01-19T06:14:40;99552.75;;;-0.45;93.23
24558;BME280;12726;49.148;8.582;2023-01-19T06:17:25;99573.53;;;-0.50;93.13
24558;BME280;12726;49.148;8.582;2023-01-19T06:20:12;99568.91;;;-0.56;94.00
24558;BME280;12726;49.148;8.582;2023-01-19T06:22:58;99567.91;;;-0.55;94.14
24558;BME280;12726;49.148;8.582;2023-01-19T06:25:43;99569.75;;;-0.47;93.33
24558;BME280;12726;49.148;8.582;2023-01-19T06:28:29;99576.38;;;-0.51;93.30
24558;BME280;12726;49.148;8.582;2023-01-19T06:31:16;99573.41;;;-0.40;92.90
24558;BME280;12726;49.148;8.582;2023-01-19T06:34:01;99579.69;;;-0.33;92.48
24558;BME280;12726;49.148;8.582;2023-01-19T06:36:47;99579.53;;;-0.31;91.89
24558;BME280;12726;49.148;8.582;2023-01-19T06:39:34;99581.03;;;-0.21;92.10
24558;BME280;12726;49.148;8.582;2023-01-19T06:42:20;99581.84;;;-0.20;91.81
24558;BME280;12726;49.148;8.582;2023-01-19T06:45:09;99588.13;;;-0.21;91.83
24558;BME280;12726;49.148;8.582;2023-01-19T06:47:58;99587.16;;;-0.12;91.98
24558;BME280;12726;49.148;8.582;2023-01-19T06:50:44;99591.63;;;-0.13;91.77
24558;BME280;12726;49.148;8.582;2023-01-19T06:53:30;99591.97;;;-0.08;91.74
24558;BME280;12726;49.148;8.582;2023-01-19T06:56:16;99593.28;;;-0.04;91.46
24558;BME280;12726;49.148;8.582;2023-01-19T06:59:02;99588.16;;;-0.05;91.63
24558;BME280;12726;49.148;8.582;2023-01-19T07:01:47;99596.75;;;-0.03;91.87
24558;BME280;12726;49.148;8.582;2023-01-19T07:04:32;99601.75;;;0.00;91.55
24558;BME280;12726;49.148;8.582;2023-01-19T07:07:17;99598.91;;;0.02;91.62
24558;BME280;12726;49.148;8.582;2023-01-19T07:10:05;99595.59;;;0.08;91.10
24558;BME280;12726;49.148;8.582;2023-01-19T07:12:50;99600.72;;;0.01;90.82
24558;BME280;12726;49.148;8.582;2023-01-19T07:15:36;99596.25;;;0.02;90.60
24558;BME280;12726;49.148;8.582;2023-01-19T07:18:21;99600.41;;;0.04;90.74
24558;BME280;12726;49.148;8.582;2023-01-19T07:21:07;99609.34;;;0.11;90.29
24558;BME280;12726;49.148;8.582;2023-01-19T07:23:52;99604.38;;;0.08;90.09
24558;BME280;12726;49.148;8.582;2023-01-19T07:26:39;99607.69;;;0.10;90.83
24558;BME280;12726;49.148;8.582;2023-01-19T07:29:25;99610.84;;;0.14;90.78
24558;BME280;12726;49.148;8.582;2023-01-19T07:32:12;99620.91;;;0.10;90.30
24558;BME280;12726;49.148;8.582;2023-01-19T07:34:58;99617.59;;;0.08;90.98
24558;BME280;12726;49.148;8.582;2023-01-19T07:37:43;99619.09;;;0.11;91.17
24558;BME280;12726;49.148;8.582;2023-01-19T07:40:28;99611.66;;;0.14;91.36
24558;BME280;12726;49.148;8.582;2023-01-19T07:43:15;99606.84;;;0.10;90.93
24558;BME280;12726;49.148;8.582;2023-01-19T07:46:02;99624.22;;;0.12;91.91
24558;BME280;12726;49.148;8.582;2023-01-19T07:48:47;99620.91;;;0.10;91.91
24558;BME280;12726;49.148;8.582;2023-01-19T07:51:33;99620.94;;;0.26;90.67
24558;BME280;12726;49.148;8.582;2023-01-19T07:54:19;99628.69;;;0.20;90.88
24558;BME280;12726;49.148;8.582;2023-01-19T07:57:04;99624.72;;;0.16;91.23
24558;BME280;12726;49.148;8.582;2023-01-19T07:59:54;99626.22;;;0.26;90.80
24558;BME280;12726;49.148;8.582;2023-01-19T08:02:40;99641.75;;;0.29;90.78
24558;BME280;12726;49.148;8.582;2023-01-19T08:05:27;99646.22;;;0.29;90.79
24558;BME280;12726;49.148;8.582;2023-01-19T08:08:13;99637.63;;;0.27;91.22
24558;BME280;12726;49.148;8.582;2023-01-19T08:10:58;99644.75;;;0.43;89.73
24558;BME280;12726;49.148;8.582;2023-01-19T08:13:43;99644.56;;;0.44;90.03
24558;BME280;12726;49.148;8.582;2023-01-19T08:16:30;99645.75;;;0.42;89.42
24558;BME280;12726;49.148;8.582;2023-01-19T08:19:15;99642.91;;;0.51;88.48
24558;BME280;12726;49.148;8.582;2023-01-19T08:22:04;99642.75;;;0.53;88.01
24558;BME280;12726;49.148;8.582;2023-01-19T08:24:49;99648.03;;;0.53;88.41
24558;BME280;12726;49.148;8.582;2023-01-19T08:27:37;99644.72;;;0.51;89.10
24558;BME280;12726;49.148;8.582;2023-01-19T08:30:23;99655.00;;;0.54;88.20
24558;BME280;12726;49.148;8.582;2023-01-19T08:33:13;99651.03;;;0.50;89.27
24558;BME280;12726;49.148;8.582;2023-01-19T08:35:58;99651.69;;;0.60;87.92
24558;BME280;12726;49.148;8.582;2023-01-19T08:38:44;99642.09;;;0.59;87.72
24558;BME280;12726;49.148;8.582;2023-01-19T08:41:31;99654.84;;;0.63;86.95
24558;BME280;12726;49.148;8.582;2023-01-19T08:44:17;99651.84;;;0.66;86.57
24558;BME280;12726;49.148;8.582;2023-01-19T08:47:02;99653.34;;;0.69;86.86
24558;BME280;12726;49.148;8.582;2023-01-19T08:49:49;99646.84;;;0.71;86.59
24558;BME280;12726;49.148;8.582;2023-01-19T08:52:34;99649.34;;;0.81;86.81
24558;BME280;12726;49.148;8.582;2023-01-19T08:55:19;99648.34;;;0.82;85.81
24558;BME280;12726;49.148;8.582;2023-01-19T08:58:05;99655.63;;;0.80;86.45
24558;BME280;12726;49.148;8.582;2023-01-19T09:00:51;99654.78;;;0.88;85.66
24558;BME280;12726;49.148;8.582;2023-01-19T09:03:36;99656.13;;;0.92;85.87
24558;BME280;12726;49.148;8.582;2023-01-19T09:06:23;99657.94;;;0.91;85.69
24558;BME280;12726;49.148;8.582;2023-01-19T09:09:09;99654.78;;;0.96;85.53
24558;BME280;12726;49.148;8.582;2023-01-19T09:11:57;99665.88;;;0.91;86.23
24558;BME280;12726;49.148;8.582;2023-01-19T09:14:42;99664.22;;;0.98;85.96
24558;BME280;12726;49.148;8.582;2023-01-19T09:17:27;99663.03;;;1.01;85.95
24558;BME280;12726;49.148;8.582;2023-01-19T09:20:13;99665.22;;;0.97;85.60
24558;BME280;12726;49.148;8.582;2023-01-19T09:23:00;99659.06;;;1.05;85.67
24558;BME280;12726;49.148;8.582;2023-01-19T09:25:46;99655.91;;;1.01;85.35
24558;BME280;12726;49.148;8.582;2023-01-19T09:28:32;99658.25;;;1.04;85.48
24558;BME280;12726;49.148;8.582;2023-01-19T09:31:17;99659.41;;;0.94;86.42
24558;BME280;12726;49.148;8.582;2023-01-19T09:34:02;99658.41;;;1.03;86.51
24558;BME280;12726;49.148;8.582;2023-01-19T09:36:47;99656.72;;;1.10;87.06
24558;BME280;12726;49.148;8.582;2023-01-19T09:39:37;99663.50;;;1.21;84.50
24558;BME280;12726;49.148;8.582;2023-01-19T09:42:26;99665.63;;;1.25;84.37
24558;BME280;12726;49.148;8.582;2023-01-19T09:45:18;99662.81;;;1.27;84.92
24558;BME280;12726;49.148;8.582;2023-01-19T09:48:21;99666.47;;;1.26;84.86
24558;BME280;12726;49.148;8.582;2023-01-19T09:51:13;99666.94;;;1.29;84.75
24558;BME280;12726;49.148;8.582;2023-01-19T09:54:05;99670.56;;;1.28;85.50
24558;BME280;12726;49.148;8.582;2023-01-19T09:56:56;99665.78;;;1.32;85.83
24558;BME280;12726;49.148;8.582;2023-01-19T09:59:44;99669.09;;;1.34;85.37
24558;BME280;12726;49.148;8.582;2023-01-19T10:02:36;99671.38;;;1.37;85.59
24558;BME280;12726;49.148;8.582;2023-01-19T10:05:28;99673.72;;;1.32;85.78
24558;BME280;12726;49.148;8.582;2023-01-19T10:08:20;99676.06;;;1.35;86.16
24558;BME280;12726;49.148;8.582;2023-01-19T10:11:17;99679.34;;;1.37;86.22
24558;BME280;12726;49.148;8.582;2023-01-19T10:14:16;99678.47;;;1.44;86.79
24558;BME280;12726;49.148;8.582;2023-01-19T10:17:12;99675.38;;;1.41;85.73
24558;BME280;12726;49.148;8.582;2023-01-19T10:20:00;99671.22;;;1.38;86.71
24558;BME280;12726;49.148;8.582;2023-01-19T10:22:48;99677.03;;;1.42;85.92
24558;BME280;12726;49.148;8.582;2023-01-19T10:25:34;99670.56;;;1.36;86.08
24558;BME280;12726;49.148;8.582;2023-01-19T10:28:23;99677.50;;;1.37;86.69
24558;BME280;12726;49.148;8.582;2023-01-19T10:31:18;99681.19;;;1.28;86.14
24558;BME280;12726;49.148;8.582;2023-01-19T10:34:05;99671.25;;;1.22;86.33
24558;BME280;12726;49.148;8.582;2023-01-19T10:36:56;99681.53;;;1.25;86.48
24558;BME280;12726;49.148;8.582;2023-01-19T10:39:44;99671.91;;;1.32;86.22
24558;BME280;12726;49.148;8.582;2023-01-19T10:42:29;99681.66;;;1.40;85.76
24558;BME280;12726;49.148;8.582;2023-01-19T10:45:15;99676.09;;;1.57;84.93
24558;BME280;12726;49.148;8.582;2023-01-19T10:48:06;99674.81;;;1.53;84.93
24558;BME280;12726;49.148;8.582;2023-01-19T10:51:00;99673.66;;;1.56;85.18
24558;BME280;12726;49.148;8.582;2023-01-19T10:53:55;99676.47;;;1.54;84.32
24558;BME280;12726;49.148;8.582;2023-01-19T10:56:42;99683.88;;;1.67;84.79
24558;BME280;12726;49.148;8.582;2023-01-19T10:59:33;99680.50;;;1.73;84.52
24558;BME280;12726;49.148;8.582;2023-01-19T11:02:20;99683.19;;;1.65;83.77
24558;BME280;12726;49.148;8.582;2023-01-19T11:05:23;99693.13;;;1.71;84.41
24558;BME280;12726;49.148;8.582;2023-01-19T11:08:21;99691.50;;;1.70;84.02
24558;BME280;12726;49.148;8.582;2023-01-19T11:11:07;99685.16;;;1.71;83.81
24558;BME280;12726;49.148;8.582;2023-01-19T11:14:07;99684.81;;;1.74;84.13
24558;BME280;12726;49.148;8.582;2023-01-19T11:16:56;99692.63;;;1.76;83.92
24558;BME280;12726;49.148;8.582;2023-01-19T11:19:42;99686.81;;;1.72;83.91
24558;BME280;12726;49.148;8.582;2023-01-19T11:22:30;99688.31;;;1.75;84.31
24558;BME280;12726;49.148;8.582;2023-01-19T11:25:23;99691.13;;;1.73;84.42
24558;BME280;12726;49.148;8.582;2023-01-19T11:28:16;99691.38;;;1.86;84.68
24558;BME280;12726;49.148;8.582;2023-01-19T11:31:16;99678.34;;;1.77;84.54
24558;BME280;12726;49.148;8.582;2023-01-19T11:34:03;99686.81;;;1.72;84.51
24558;BME280;12726;49.148;8.582;2023-01-19T11:36:54;99682.50;;;1.71;84.53
24558;BME280;12726;49.148;8.582;2023-01-19T11:39:46;99672.09;;;1.70;84.83
24558;BME280;12726;49.148;8.582;2023-01-19T11:42:33;99677.00;;;1.81;85.21
24558;BME280;12726;49.148;8.582;2023-01-19T11:45:20;99668.44;;;2.24;82.75
24558;BME280;12726;49.148;8.582;2023-01-19T11:48:06;99675.06;;;2.66;81.13
24558;BME280;12726;49.148;8.582;2023-01-19T11:51:02;99663.63;;;2.65;81.53
24558;BME280;12726;49.148;8.582;2023-01-19T11:53:51;99664.25;;;2.67;81.28
24558;BME280;12726;49.148;8.582;2023-01-19T11:56:42;99656.72;;;2.56;81.26
24558;BME280;12726;49.148;8.582;2023-01-19T11:59:28;99656.50;;;2.43;82.13
24558;BME280;12726;49.148;8.582;2023-01-19T12:02:21;99659.69;;;2.39;82.14
24558;BME280;12726;49.148;8.582;2023-01-19T12:05:12;99658.59;;;2.33;81.22
24558;BME280;12726;49.148;8.582;2023-01-19T12:08:01;99665.81;;;2.16;81.13
24558;BME280;12726;49.148;8.582;2023-01-19T12:10:50;99673.97;;;2.15;81.61
24558;BME280;12726;49.148;8.582;2023-01-19T12:13:39;99663.50;;;2.13;82.16
24558;BME280;12726;49.148;8.582;2023-01-19T12:16:28;99665.53;;;2.11;82.33
24558;BME280;12726;49.148;8.582;2023-01-19T12:19:17;99659.28;;;2.04;82.77
24558;BME280;12726;49.148;8.582;2023-01-19T12:22:03;99650.50;;;2.04;83.05
24558;BME280;12726;49.148;8.582;2023-01-19T12:24:54;99660.44;;;2.02;84.12
24558;BME280;12726;49.148;8.582;2023-01-19T12:27:48;99664.75;;;2.03;83.74
24558;BME280;12726;49.148;8.582;2023-01-19T12:30:38;99642.63;;;2.10;83.33
24558;BME280;12726;49.148;8.582;2023-01-19T12:33:35;99647.41;;;2.15;83.30
24558;BME280;12726;49.148;8.582;2023-01-19T12:36:36;99648.91;;;2.17;83.85
24558;BME280;12726;49.148;8.582;2023-01-19T12:39:22;99643.16;;;2.28;83.25
24558;BME280;12726;49.148;8.582;2023-01-19T12:42:12;99631.03;;;2.34;83.03
24558;BME280;12726;49.148;8.582;2023-01-19T12:45:05;99636.63;;;2.39;83.91
24558;BME280;12726;49.148;8.582;2023-01-19T12:47:57;99639.41;;;2.60;83.49
24558;BME280;12726;49.148;8.582;2023-01-19T12:50:45;99637.69;;;2.67;81.60
24558;BME280;12726;49.148;8.582;2023-01-19T12:53:33;99627.50;;;2.71;81.69
24558;BME280;12726;49.148;8.582;2023-01-19T12:56:19;99628.53;;;2.85;81.98
24558;BME280;12726;49.148;8.582;2023-01-19T12:59:22;99633.53;;;3.17;80.05
24558;BME280;12726;49.148;8.582;2023-01-19T13:05:56;99628.72;;;3.27;80.01
24558;BME280;12726;49.148;8.582;2023-01-19T13:08:58;99624.25;;;3.13;79.33
24558;BME280;12726;49.148;8.582;2023-01-19T13:15:36;99623.41;;;3.27;78.12
24558;BME280;12726;49.148;8.582;2023-01-19T13:18:23;99629.69;;;3.20;78.99
24558;BME280;12726;49.148;8.582;2023-01-19T13:21:10;99631.50;;;3.04;79.40
24558;BME280;12726;49.148;8.582;2023-01-19T13:23:57;99620.88;;;3.04;80.48
24558;BME280;12726;49.148;8.582;2023-01-19T13:26:53;99620.88;;;2.90;79.66
24558;BME280;12726;49.148;8.582;2023-01-19T13:29:41;99623.44;;;2.98;79.89
24558;BME280;12726;49.148;8.582;2023-01-19T13:32:28;99625.34;;;2.74;80.76
24558;BME280;12726;49.148;8.582;2023-01-19T13:35:13;99621.19;;;2.72;79.94
24558;BME280;12726;49.148;8.582;2023-01-19T13:38:03;99622.97;;;2.94;79.79
24558;BME280;12726;49.148;8.582;2023-01-19T13:40:48;99622.41;;;3.28;77.90
24558;BME280;12726;49.148;8.582;2023-01-19T13:43:36;99631.28;;;3.50;78.60
24558;BME280;12726;49.148;8.582;2023-01-19T13:46:23;99623.28;;;3.50;77.21
24558;BME280;12726;49.148;8.582;2023-01-19T13:49:16;99629.84;;;3.47;76.10
24558;BME280;12726;49.148;8.582;2023-01-19T13:52:11;99631.59;;;3.40;76.20
24558;BME280;12726;49.148;8.582;2023-01-19T13:55:00;99631.19;;;3.43;76.09
24558;BME280;12726;49.148;8.582;2023-01-19T13:57:47;99631.50;;;3.34;76.05
24558;BME280;12726;49.148;8.582;2023-01-19T14:00:33;99638.84;;;3.32;74.90
24558;BME280;12726;49.148;8.582;2023-01-19T14:03:20;99633.25;;;3.27;75.02
24558;BME280;12726;49.148;8.582;2023-01-19T14:06:22;99633.69;;;3.30;74.94
24558;BME280;12726;49.148;8.582;2023-01-19T14:09:16;99642.31;;;3.32;74.94
24558;BME280;12726;49.148;8.582;2023-01-19T14:12:10;99639.19;;;3.43;74.22
24558;BME280;12726;49.148;8.582;2023-01-19T14:14:57;99654.41;;;3.49;74.15
24558;BME280;12726;49.148;8.582;2023-01-19T14:17:42;99649.66;;;3.45;73.12
24558;BME280;12726;49.148;8.582;2023-01-19T14:20:28;99657.47;;;3.32;73.57
24558;BME280;12726;49.148;8.582;2023-01-19T14:23:37;99645.34;;;3.44;74.43
24558;BME280;12726;49.148;8.582;2023-01-19T14:26:44;99662.13;;;3.44;72.56
24558;BME280;12726;49.148;8.582;2023-01-19T14:29:33;99658.06;;;3.48;72.80
24558;BME280;12726;49.148;8.582;2023-01-19T14:32:20;99650.66;;;3.44;72.21
24558;BME280;12726;49.148;8.582;2023-01-19T14:35:13;99655.31;;;3.57;72.66
24558;BME280;12726;49.148;8.582;2023-01-19T14:37:59;99656.44;;;3.47;71.64
24558;BME280;12726;49.148;8.582;2023-01-19T14:40:44;99663.03;;;3.37;72.01
24558;BME280;12726;49.148;8.582;2023-01-19T14:43:30;99662.78;;;3.32;71.96
24558;BME280;12726;49.148;8.582;2023-01-19T14:46:17;99657.78;;;2.99;71.16
24558;BME280;12726;49.148;8.582;2023-01-19T14:49:04;99661.56;;;2.90;72.43
24558;BME280;12726;49.148;8.582;2023-01-19T14:51:50;99655.59;;;2.88;73.11
24558;BME280;12726;49.148;8.582;2023-01-19T14:54:38;99659.81;;;2.83;71.40
24558;BME280;12726;49.148;8.582;2023-01-19T14:57:24;99649.16;;;2.68;72.33
24558;BME280;12726;49.148;8.582;2023-01-19T15:00:14;99657.47;;;2.65;72.50
24558;BME280;12726;49.148;8.582;2023-01-19T15:03:02;99662.50;;;2.60;72.58
24558;BME280;12726;49.148;8.582;2023-01-19T15:05:49;99660.41;;;2.55;72.61